Time;durP1;ratioP1;P1;durP2;ratioP2;P2;SDS_P1;SDS_P2;PMS_P1;PMS_P2;Temp;Humidity;BMP_temperature;BMP_pressure;BME280_temperature;BME280_humidity;BME280_pressure;Samples;Min_cycle;Max_cycle;Signal;HPM_P1;HPM_P2
2022/12/12 00:01:53;;;;;;;21.67;13.35;;;22.30;99.90;;;;;;5053326;28;20465;-56
2022/12/12 00:04:19;;;;;;;19.35;13.75;;;22.30;99.90;;;;;;5053318;28;20027;-54
2022/12/12 00:06:45;;;;;;;18.77;13.48;;;22.20;99.90;;;;;;5053588;28;20029;-55
2022/12/12 00:09:11;;;;;;;18.90;12.80;;;22.20;99.90;;;;;;5035274;28;20098;-55
2022/12/12 00:11:37;;;;;;;18.83;12.73;;;22.20;99.90;;;;;;5053184;28;20017;-55
2022/12/12 00:14:03;;;;;;;28.55;14.50;;;22.20;99.90;;;;;;5053203;28;20052;-54
2022/12/12 00:16:29;;;;;;;22.63;13.70;;;22.20;99.90;;;;;;5053088;28;20063;-54
2022/12/12 00:18:55;;;;;;;19.00;13.48;;;22.20;99.90;;;;;;5051758;28;20024;-54
2022/12/12 00:21:26;;;;;;;20.50;12.73;;;22.10;99.90;;;;;;5053143;28;20025;-54
2022/12/12 00:23:53;;;;;;;18.80;12.70;;;22.20;99.90;;;;;;5052990;28;20017;-55
2022/12/12 00:26:22;;;;;;;19.13;13.03;;;22.10;99.90;;;;;;5053313;28;20029;-55
2022/12/12 00:28:49;;;;;;;19.85;12.30;;;22.20;99.90;;;;;;5053101;28;20074;-54
2022/12/12 00:31:15;;;;;;;19.90;12.60;;;22.20;99.90;;;;;;5052819;28;20029;-54
2022/12/12 00:33:46;;;;;;;19.88;12.45;;;22.20;99.90;;;;;;5034902;28;20048;-54
2022/12/12 00:36:13;;;;;;;20.58;12.98;;;22.10;99.90;;;;;;5052900;28;20025;-54
2022/12/12 00:38:39;;;;;;;16.15;11.85;;;22.10;99.90;;;;;;5052773;28;20163;-54
2022/12/12 00:41:05;;;;;;;20.17;13.10;;;22.10;99.90;;;;;;5052659;28;20420;-55
2022/12/12 00:43:31;;;;;;;19.58;12.77;;;22.10;99.90;;;;;;5052643;28;20118;-55
2022/12/12 00:45:59;;;;;;;17.88;11.50;;;22.10;99.90;;;;;;5034509;28;20048;-56
2022/12/12 00:48:25;;;;;;;20.85;13.23;;;22.10;99.90;;;;;;5052433;28;20033;-55
2022/12/12 00:50:51;;;;;;;20.45;12.35;;;22.10;99.90;;;;;;5052682;28;20036;-55
2022/12/12 00:53:17;;;;;;;16.70;11.70;;;22.10;99.90;;;;;;5052691;28;20029;-56
2022/12/12 00:55:43;;;;;;;20.80;13.13;;;22.10;99.90;;;;;;5052516;28;20013;-54
2022/12/12 00:58:09;;;;;;;18.20;11.95;;;22.00;99.90;;;;;;5052391;28;20100;-55
2022/12/12 01:00:35;;;;;;;20.83;12.40;;;22.00;99.90;;;;;;5052690;28;20048;-55
2022/12/12 01:03:01;;;;;;;20.75;12.75;;;22.10;99.90;;;;;;5052345;28;20479;-55
2022/12/12 01:05:27;;;;;;;17.70;12.20;;;22.00;99.90;;;;;;5052026;28;20025;-56
2022/12/12 01:07:53;;;;;;;18.85;12.45;;;22.10;99.90;;;;;;5052173;28;20032;-56
2022/12/12 01:10:19;;;;;;;18.25;11.82;;;22.00;99.90;;;;;;5052282;28;20032;-56
2022/12/12 01:12:45;;;;;;;18.67;11.77;;;22.00;99.90;;;;;;5052252;28;20029;-55
2022/12/12 01:15:11;;;;;;;18.35;11.88;;;22.00;99.90;;;;;;5034133;28;20021;-55
2022/12/12 01:17:37;;;;;;;18.73;11.07;;;22.00;99.90;;;;;;5017756;28;20081;-54
2022/12/12 01:20:15;;;;;;;16.92;11.32;;;22.00;99.90;;;;;;5052083;28;20029;-55
2022/12/12 01:22:41;;;;;;;15.70;11.52;;;22.00;99.90;;;;;;5051819;28;20478;-54
2022/12/12 01:25:08;;;;;;;18.95;12.02;;;22.00;99.90;;;;;;5052077;28;20036;-55
2022/12/12 01:27:34;;;;;;;16.40;12.18;;;22.00;99.90;;;;;;5033981;28;20409;-54
2022/12/12 01:30:01;;;;;;;16.35;11.13;;;22.00;99.90;;;;;;5034308;28;20044;-55
2022/12/12 01:32:28;;;;;;;15.73;11.37;;;22.00;99.90;;;;;;5052084;28;20458;-55
2022/12/12 01:34:54;;;;;;;18.88;11.43;;;22.00;99.90;;;;;;5052107;28;20308;-54
2022/12/12 01:37:19;;;;;;;16.83;11.10;;;21.90;99.90;;;;;;5052111;28;20021;-54
2022/12/12 01:39:45;;;;;;;16.20;10.23;;;22.00;99.90;;;;;;5051893;28;20025;-54
2022/12/12 01:42:16;;;;;;;18.20;11.38;;;22.00;99.90;;;;;;5051774;28;20040;-55
2022/12/12 01:44:44;;;;;;;20.95;11.80;;;22.00;99.90;;;;;;5051900;28;20067;-54
2022/12/12 01:47:14;;;;;;;;;;;22.00;99.90;;;;;;5034324;28;20037;-55
2022/12/12 01:50:13;;;;;;;18.15;10.52;;;21.90;99.90;;;;;;5051854;28;19912;-55
2022/12/12 01:52:45;;;;;;;15.80;10.05;;;21.90;99.90;;;;;;4997002;28;20037;-54
2022/12/12 01:55:15;;;;;;;16.80;10.02;;;21.90;99.90;;;;;;5034721;28;20028;-54
2022/12/12 01:57:46;;;;;;;15.50;10.35;;;21.90;99.90;;;;;;5051831;28;20024;-54
2022/12/12 02:00:14;;;;;;;16.73;9.88;;;21.90;99.90;;;;;;5033558;22;20547;-48
2022/12/12 02:02:43;;;;;;;15.35;9.95;;;21.90;99.90;;;;;;4953707;29;20027;-46
2022/12/12 02:05:29;;;;;;;16.25;9.90;;;21.90;99.90;;;;;;4953814;29;20103;-47
2022/12/12 02:07:57;;;;;;;15.38;10.18;;;21.90;99.90;;;;;;4953968;29;20035;-46
2022/12/12 02:10:23;;;;;;;18.27;10.00;;;21.90;99.90;;;;;;4936690;29;20086;-47
2022/12/12 02:12:49;;;;;;;15.32;10.25;;;21.90;99.90;;;;;;4953782;29;20023;-46
2022/12/12 02:15:15;;;;;;;16.20;9.43;;;21.90;99.90;;;;;;4953714;29;20066;-46
2022/12/12 02:18:02;;;;;;;14.45;9.50;;;21.80;99.90;;;;;;4956047;28;20031;-47
2022/12/12 02:20:39;;;;;;;15.80;10.18;;;21.90;99.90;;;;;;4957360;29;20090;-47
2022/12/12 02:23:28;;;;;;;15.18;9.77;;;21.80;99.90;;;;;;4957405;29;20404;-47
2022/12/12 02:26:08;;;;;;;15.27;9.93;;;21.80;99.90;;;;;;4957337;29;20507;-47
2022/12/12 02:29:00;;;;;;;15.73;10.45;;;21.80;99.90;;;;;;4957244;29;20039;-47
2022/12/12 02:32:00;;;;;;;16.10;10.20;;;21.80;99.90;;;;;;4957572;29;20023;-47
2022/12/12 02:34:50;;;;;;;19.65;10.05;;;21.80;99.90;;;;;;4951829;29;20047;-47
2022/12/12 02:37:48;;;;;;;14.60;9.35;;;21.80;99.90;;;;;;4957085;29;20094;-47
2022/12/12 02:40:31;;;;;;;12.00;8.95;;;21.80;99.90;;;;;;4956980;29;20027;-47
2022/12/12 02:43:12;;;;;;;15.63;9.23;;;21.80;99.90;;;;;;4955844;29;20024;-47
2022/12/12 02:45:56;;;;;;;14.75;9.52;;;21.70;99.90;;;;;;4956932;29;20106;-48
2022/12/12 02:48:29;;;;;;;13.57;9.15;;;21.70;99.90;;;;;;4956693;29;20105;-47
2022/12/12 02:50:59;;;;;;;13.30;8.73;;;21.70;99.90;;;;;;4956965;29;20034;-47
2022/12/12 02:53:25;;;;;;;13.43;9.18;;;21.70;99.90;;;;;;4957010;29;20034;-47
2022/12/12 02:56:29;;;;;;;13.20;8.32;;;21.70;99.90;;;;;;4956763;29;20074;-48
2022/12/12 02:58:55;;;;;;;15.60;8.90;;;21.70;99.90;;;;;;4941709;29;20094;-47
2022/12/12 03:01:24;;;;;;;15.70;9.32;;;21.70;99.90;;;;;;4956945;28;20054;-47
2022/12/12 03:10:27;;;;;;;14.50;7.85;;;21.70;99.90;;;;;;4956670;29;20045;-48
2022/12/12 03:13:27;;;;;;;13.68;8.63;;;21.70;99.90;;;;;;4956411;29;20110;-51
2022/12/12 03:16:08;;;;;;;12.90;8.48;;;21.60;99.90;;;;;;4955029;29;20038;-47
2022/12/12 03:18:56;;;;;;;13.05;9.10;;;21.60;99.90;;;;;;4956228;29;20111;-46
2022/12/12 03:21:31;;;;;;;14.85;8.43;;;21.60;99.90;;;;;;4956154;29;20023;-47
2022/12/12 03:24:02;;;;;;;12.43;8.38;;;21.60;99.90;;;;;;4956380;29;20027;-47
2022/12/12 03:27:06;;;;;;;12.20;7.95;;;21.60;99.90;;;;;;4956175;29;20031;-46
2022/12/12 03:29:38;;;;;;;11.60;6.78;;;21.60;99.90;;;;;;4915673;29;20616;-47
2022/12/12 03:32:14;;;;;;;14.20;7.63;;;21.60;99.90;;;;;;4950358;29;20493;-47
2022/12/12 03:34:51;;;;;;;13.68;8.23;;;21.60;99.90;;;;;;4955990;29;20027;-47
2022/12/12 03:37:36;;;;;;;12.00;6.78;;;21.60;99.90;;;;;;4955893;29;20027;-47
2022/12/12 03:40:10;;;;;;;13.50;7.88;;;21.60;99.90;;;;;;4956226;29;20070;-47
2022/12/12 03:42:47;;;;;;;13.48;7.55;;;21.60;99.90;;;;;;4938900;29;20463;-46
2022/12/12 03:45:13;;;;;;;;;;;21.60;99.90;;;;;;4956103;29;20063;-47
2022/12/12 03:47:53;;;;;;;11.45;6.97;;;21.60;99.90;;;;;;4955726;29;19965;-46
2022/12/12 03:50:20;;;;;;;11.52;7.00;;;21.60;99.90;;;;;;4955816;29;20031;-47
2022/12/12 03:52:58;;;;;;;11.70;7.28;;;21.50;99.90;;;;;;4955690;29;20030;-47
2022/12/12 03:55:35;;;;;;;11.50;6.80;;;21.50;99.90;;;;;;4955548;29;20031;-46
2022/12/12 03:58:08;;;;;;;10.95;6.90;;;21.50;99.90;;;;;;4955806;29;20050;-46
2022/12/12 04:00:37;;;;;;;11.05;7.03;;;21.50;99.90;;;;;;4955870;28;20039;-47
2022/12/12 04:03:36;;;;;;;11.18;6.57;;;21.50;99.90;;;;;;4955694;29;20465;-47
2022/12/12 04:14:40;;;;;;;9.13;5.32;;;21.50;99.90;;;;;;4955437;29;20034;-47
2022/12/12 04:17:10;;;;;;;11.52;6.57;;;21.50;99.90;;;;;;4955209;29;20023;-47
2022/12/12 04:26:37;;;;;;;12.18;6.45;;;21.50;99.90;;;;;;4955320;29;20026;-47
2022/12/12 04:28:26;;;;;;;12.93;6.78;;;21.40;99.90;;;;;;4954739;29;20050;-47
2022/12/12 04:30:53;;;;;;;13.45;6.55;;;21.50;99.90;;;;;;4954912;29;20023;-47
2022/12/12 04:33:22;;;;;;;10.57;6.20;;;21.50;99.90;;;;;;4954935;29;20050;-47
2022/12/12 04:35:49;;;;;;;11.00;6.43;;;21.40;99.90;;;;;;4954829;29;20078;-47
2022/12/12 04:38:20;;;;;;;10.35;6.38;;;21.50;99.90;;;;;;4954740;29;20034;-47
2022/12/12 04:40:52;;;;;;;10.32;5.40;;;21.40;99.90;;;;;;4954104;28;20035;-47
2022/12/12 04:43:24;;;;;;;9.95;5.65;;;21.40;99.90;;;;;;4954737;29;20083;-47
2022/12/12 04:45:54;;;;;;;9.52;5.70;;;21.40;99.90;;;;;;4954633;29;20454;-47
2022/12/12 04:48:28;;;;;;;8.55;5.07;;;21.40;99.90;;;;;;4954321;29;20076;-46
2022/12/12 04:50:56;;;;;;;9.82;5.57;;;21.40;99.90;;;;;;4954723;29;20401;-47
2022/12/12 04:53:30;;;;;;;10.23;5.85;;;21.40;99.90;;;;;;4954646;29;20023;-47
2022/12/12 04:55:59;;;;;;;9.32;5.63;;;21.40;99.90;;;;;;4954473;29;20019;-47
2022/12/12 04:58:25;;;;;;;11.63;5.20;;;21.40;99.90;;;;;;4954399;29;20023;-47
2022/12/12 05:01:08;;;;;;;10.20;5.30;;;21.40;99.90;;;;;;5016470;22;20053;-54
2022/12/12 05:03:42;;;;;;;9.20;5.75;;;21.40;99.90;;;;;;5032742;28;20079;-54
2022/12/12 05:06:11;;;;;;;8.57;5.22;;;21.40;99.90;;;;;;5014798;28;20028;-54
2022/12/12 05:08:47;;;;;;;9.85;5.60;;;21.40;99.90;;;;;;5014712;28;20036;-53
2022/12/12 05:11:14;;;;;;;6.60;4.68;;;21.40;99.90;;;;;;5014858;28;20023;-55
2022/12/12 05:13:42;;;;;;;8.03;4.70;;;21.40;99.90;;;;;;5032285;28;20024;-55
2022/12/12 05:16:29;;;;;;;11.85;5.18;;;21.40;99.90;;;;;;5032617;28;20295;-54
2022/12/12 05:18:55;;;;;;;;;;;21.40;99.90;;;;;;5032493;28;20031;-54
2022/12/12 05:21:21;;;;;;;9.80;5.07;;;21.40;99.90;;;;;;5032180;28;20418;-55
2022/12/12 05:23:46;;;;;;;8.48;4.25;;;21.40;99.90;;;;;;5032151;28;20025;-54
2022/12/12 05:26:28;;;;;;;8.75;4.85;;;21.30;99.90;;;;;;5032072;28;20025;-53
2022/12/12 05:28:54;;;;;;;9.93;4.93;;;21.30;99.90;;;;;;5014271;28;20032;-54
2022/12/12 05:31:20;;;;;;;10.98;4.85;;;21.30;99.90;;;;;;5032054;28;20379;-55
2022/12/12 05:33:45;;;;;;;8.13;5.05;;;21.30;99.90;;;;;;5032065;28;20022;-55
2022/12/12 05:36:12;;;;;;;8.45;4.60;;;21.40;99.90;;;;;;5031947;28;20025;-53
2022/12/12 05:38:39;;;;;;;9.02;5.38;;;21.40;99.90;;;;;;5032347;28;20041;-54
2022/12/12 05:41:05;;;;;;;8.87;4.43;;;21.30;99.90;;;;;;5032260;28;20444;-53
2022/12/12 05:43:31;;;;;;;8.40;4.75;;;21.40;99.90;;;;;;5032001;28;20096;-55
2022/12/12 05:45:57;;;;;;;7.97;4.88;;;21.30;99.90;;;;;;5032022;28;20018;-55
2022/12/12 05:48:23;;;;;;;6.88;4.78;;;21.30;99.90;;;;;;5031880;28;20121;-54
2022/12/12 05:50:49;;;;;;;12.50;4.03;;;21.40;99.90;;;;;;5033154;28;20160;-55
2022/12/12 05:53:15;;;;;;;9.30;5.25;;;21.30;99.90;;;;;;5036004;28;20026;-55
2022/12/12 05:55:41;;;;;;;9.30;4.53;;;21.30;99.90;;;;;;5036000;28;20025;-54
2022/12/12 05:58:07;;;;;;;7.53;4.95;;;21.40;99.90;;;;;;5036072;28;20029;-54
2022/12/12 06:00:32;;;;;;;10.20;4.75;;;21.40;99.90;;;;;;5017875;28;20041;-54
2022/12/12 06:02:58;;;;;;;7.00;4.50;;;21.40;99.90;;;;;;5035771;28;20100;-55
2022/12/12 06:05:24;;;;;;;8.18;4.35;;;21.40;99.90;;;;;;5035745;28;20034;-55
2022/12/12 06:07:50;;;;;;;9.48;4.68;;;21.30;99.90;;;;;;5035594;28;20029;-54
2022/12/12 06:10:16;;;;;;;6.78;4.10;;;21.40;99.90;;;;;;5035773;28;20098;-54
2022/12/12 06:12:41;;;;;;;9.57;4.85;;;21.40;99.90;;;;;;5035727;28;20108;-54
2022/12/12 06:15:08;;;;;;;7.47;4.25;;;21.40;99.90;;;;;;5035665;28;20040;-55
2022/12/12 06:17:34;;;;;;;7.13;4.15;;;21.40;99.90;;;;;;5035524;28;20116;-54
2022/12/12 06:20:00;;;;;;;8.25;4.00;;;21.40;99.90;;;;;;5035278;28;20025;-54
2022/12/12 06:22:26;;;;;;;12.68;4.50;;;21.30;99.90;;;;;;5035447;28;20021;-55
2022/12/12 06:24:52;;;;;;;10.38;4.07;;;21.30;99.90;;;;;;5035408;28;20036;-54
2022/12/12 06:27:17;;;;;;;8.02;4.13;;;21.30;99.90;;;;;;5035256;28;20029;-54
2022/12/12 06:29:43;;;;;;;9.88;4.30;;;21.30;99.90;;;;;;5035109;28;20037;-55
2022/12/12 06:32:09;;;;;;;7.88;3.95;;;21.30;99.90;;;;;;5035432;28;20101;-55
2022/12/12 06:34:36;;;;;;;10.85;4.60;;;21.30;99.90;;;;;;5035159;28;20036;-54
2022/12/12 06:37:04;;;;;;;;;;;21.30;99.90;;;;;;5035630;28;20025;-55
2022/12/12 06:39:29;;;;;;;10.82;4.20;;;21.30;99.90;;;;;;5034988;28;19912;-55
2022/12/12 06:41:55;;;;;;;9.38;4.32;;;21.30;99.90;;;;;;5035024;28;20037;-56
2022/12/12 06:44:21;;;;;;;8.25;4.40;;;21.30;99.90;;;;;;5035042;28;20045;-56
2022/12/12 06:46:46;;;;;;;10.52;3.95;;;21.30;99.90;;;;;;5034917;28;20104;-54
2022/12/12 06:49:12;;;;;;;9.82;4.75;;;21.30;99.90;;;;;;5035166;28;20061;-55
2022/12/12 06:51:42;;;;;;;11.55;4.45;;;21.30;99.90;;;;;;5017254;28;20025;-55
2022/12/12 06:54:13;;;;;;;6.40;4.03;;;21.30;99.90;;;;;;5034893;28;20442;-55
2022/12/12 06:56:39;;;;;;;9.90;4.03;;;21.30;99.90;;;;;;5016945;28;20116;-55
2022/12/12 06:59:05;;;;;;;8.38;3.70;;;21.30;99.90;;;;;;5034671;28;20128;-55
2022/12/12 07:01:31;;;;;;;7.88;4.13;;;21.30;99.90;;;;;;5034411;28;20043;-56
2022/12/12 07:03:57;;;;;;;10.02;3.65;;;21.30;99.90;;;;;;5033986;28;20026;-55
2022/12/12 07:06:24;;;;;;;8.98;4.15;;;21.30;99.90;;;;;;5034554;28;20068;-56
2022/12/12 07:08:51;;;;;;;9.32;3.97;;;21.30;99.90;;;;;;5034416;28;20033;-56
2022/12/12 07:11:21;;;;;;;11.38;4.60;;;21.20;99.90;;;;;;5034454;28;20045;-57
2022/12/12 07:13:47;;;;;;;10.77;4.10;;;21.20;99.90;;;;;;5016611;28;20087;-56
2022/12/12 07:16:13;;;;;;;6.50;3.42;;;21.20;99.90;;;;;;5034737;28;20029;-56
2022/12/12 07:18:39;;;;;;;8.82;3.42;;;21.20;99.90;;;;;;5034424;28;20494;-56
2022/12/12 07:21:10;;;;;;;8.45;3.72;;;21.20;99.90;;;;;;5034356;28;20033;-56
2022/12/12 07:23:36;;;;;;;7.15;3.55;;;21.20;99.90;;;;;;5034291;28;20511;-55
2022/12/12 07:26:04;;;;;;;10.48;3.97;;;21.20;99.90;;;;;;5034087;28;20391;-56
2022/12/12 07:28:30;;;;;;;9.02;4.03;;;21.20;99.90;;;;;;5016203;28;20033;-56
2022/12/12 07:30:56;;;;;;;9.38;4.22;;;21.20;99.90;;;;;;5034051;28;20018;-55
2022/12/12 07:33:21;;;;;;;11.00;4.03;;;21.20;99.90;;;;;;5034106;28;20037;-56
2022/12/12 07:35:47;;;;;;;7.55;3.72;;;21.20;99.90;;;;;;5034121;28;20517;-56
2022/12/12 07:38:14;;;;;;;11.68;3.95;;;21.20;99.90;;;;;;5034298;28;20025;-56
2022/12/12 07:40:40;;;;;;;6.43;3.50;;;21.20;99.90;;;;;;5033928;28;20017;-56
2022/12/12 07:43:06;;;;;;;9.10;4.00;;;21.20;99.90;;;;;;5016112;28;20033;-56
2022/12/12 07:45:32;;;;;;;11.15;3.92;;;21.20;99.90;;;;;;5033934;28;20486;-56
2022/12/12 07:47:58;;;;;;;11.52;3.45;;;21.20;99.90;;;;;;5033453;28;20033;-56
2022/12/12 07:50:23;;;;;;;9.07;3.65;;;21.20;99.90;;;;;;5033790;28;20029;-56
2022/12/12 07:52:49;;;;;;;11.82;3.55;;;21.20;99.90;;;;;;5033639;28;20525;-56
2022/12/12 07:55:15;;;;;;;8.75;3.58;;;21.20;99.90;;;;;;5033729;28;20036;-55
2022/12/12 07:57:41;;;;;;;9.98;4.05;;;21.20;99.90;;;;;;5033630;28;20090;-56
2022/12/12 08:00:09;;;;;;;8.70;4.57;;;21.30;99.90;;;;;;5033222;28;20060;-56
2022/12/12 08:02:35;;;;;;;11.93;4.32;;;21.30;99.90;;;;;;5033438;28;20018;-56
2022/12/12 08:05:00;;;;;;;10.15;3.85;;;21.30;99.90;;;;;;5033369;28;20022;-56
2022/12/12 08:07:26;;;;;;;12.90;4.72;;;21.30;99.90;;;;;;5033130;28;20079;-56
2022/12/12 08:09:52;;;;;;;6.03;3.35;;;21.30;99.90;;;;;;5033200;28;20049;-56
2022/12/12 08:12:18;;;;;;;10.50;4.35;;;21.30;99.90;;;;;;5033344;28;20498;-56
2022/12/12 08:14:43;;;;;;;8.25;3.72;;;21.40;99.90;;;;;;5014563;28;20026;-56
2022/12/12 08:17:09;;;;;;;7.78;3.70;;;21.30;99.90;;;;;;5033223;28;20021;-56
2022/12/12 08:19:35;;;;;;;6.72;3.03;;;21.40;99.90;;;;;;5033073;28;20048;-56
2022/12/12 08:22:01;;;;;;;6.15;3.47;;;21.40;99.90;;;;;;5033143;28;20075;-55
2022/12/12 08:24:28;;;;;;;8.70;3.63;;;21.40;99.90;;;;;;5032863;28;20493;-56
2022/12/12 08:26:54;;;;;;;5.65;3.50;;;21.40;99.90;;;;;;5033096;28;20451;-55
2022/12/12 08:29:20;;;;;;;9.68;3.25;;;21.50;99.90;;;;;;5033046;28;20064;-56
2022/12/12 08:31:46;;;;;;;5.45;3.05;;;21.50;99.90;;;;;;5033079;28;20075;-55
2022/12/12 08:34:12;;;;;;;8.52;3.58;;;21.50;99.90;;;;;;5032727;28;20418;-56
2022/12/12 08:36:38;;;;;;;7.95;3.33;;;21.50;99.90;;;;;;5032719;28;20361;-55
2022/12/12 08:39:12;;;;;;;6.18;3.42;;;21.60;99.90;;;;;;5032709;28;20105;-56
2022/12/12 08:41:40;;;;;;;8.15;3.20;;;21.60;99.90;;;;;;5032733;28;20505;-56
2022/12/12 08:44:09;;;;;;;8.15;3.40;;;21.60;99.90;;;;;;5032622;28;20040;-57
2022/12/12 08:46:34;;;;;;;9.45;3.80;;;21.60;99.90;;;;;;5032582;28;20025;-56
2022/12/12 08:49:00;;;;;;;6.90;3.15;;;21.70;99.90;;;;;;5014649;28;20041;-56
2022/12/12 08:51:26;;;;;;;8.82;3.22;;;21.70;99.90;;;;;;5032322;28;20032;-56
2022/12/12 08:53:52;;;;;;;7.35;2.92;;;21.70;99.90;;;;;;5032822;28;20091;-56
2022/12/12 08:56:20;;;;;;;10.45;3.72;;;21.70;99.90;;;;;;5032732;28;20021;-56
2022/12/12 08:58:46;;;;;;;6.93;3.10;;;21.70;99.90;;;;;;5014579;28;20095;-54
2022/12/12 09:01:14;;;;;;;10.65;3.90;;;21.80;99.90;;;;;;5032238;28;20041;-56
2022/12/12 09:03:40;;;;;;;7.05;3.80;;;21.80;99.90;;;;;;5032206;28;20053;-55
2022/12/12 09:06:07;;;;;;;6.22;3.20;;;21.80;99.90;;;;;;5032323;28;20075;-58
2022/12/12 09:08:33;;;;;;;10.53;3.97;;;21.80;99.90;;;;;;5032239;28;20040;-56
2022/12/12 09:10:59;;;;;;;9.07;3.47;;;21.90;99.90;;;;;;5032240;28;20267;-55
2022/12/12 09:13:25;;;;;;;8.52;3.42;;;21.80;99.90;;;;;;5032242;28;20037;-56
2022/12/12 09:15:51;;;;;;;9.43;4.28;;;21.80;99.90;;;;;;5032134;28;20530;-54
2022/12/12 09:18:18;;;;;;;12.02;3.90;;;21.80;99.90;;;;;;5032184;28;20025;-55
2022/12/12 09:20:52;;;;;;;6.43;3.40;;;21.80;99.90;;;;;;5032150;28;20513;-55
2022/12/12 09:23:18;;;;;;;9.90;3.90;;;21.80;99.90;;;;;;5014272;28;20183;-56
2022/12/12 09:25:44;;;;;;;6.57;3.53;;;21.80;99.90;;;;;;5031798;28;20024;-56
2022/12/12 09:28:11;;;;;;;9.68;3.83;;;21.90;99.90;;;;;;5014167;28;20391;-56
2022/12/12 09:30:38;;;;;;;9.73;4.13;;;21.90;99.90;;;;;;5031903;28;20032;-55
2022/12/12 09:33:03;;;;;;;8.40;3.92;;;21.90;99.90;;;;;;5031893;28;20383;-56
2022/12/12 09:35:29;;;;;;;9.73;4.78;;;21.90;99.90;;;;;;5032017;28;20026;-56
2022/12/12 09:37:55;;;;;;;8.80;3.63;;;21.90;99.90;;;;;;5031909;28;20033;-56
2022/12/12 09:40:56;;;;;;;10.75;4.68;;;21.90;99.90;;;;;;5032094;28;20092;-55
2022/12/12 09:43:36;;;;;;;7.40;4.43;;;22.00;99.90;;;;;;5031975;28;20053;-56
2022/12/12 09:46:04;;;;;;;8.95;3.70;;;22.00;99.90;;;;;;5014103;28;20022;-57
2022/12/12 09:48:44;;;;;;;10.55;4.45;;;22.10;99.90;;;;;;5031722;28;20104;-56
2022/12/12 09:51:11;;;;;;;7.50;4.28;;;22.20;99.90;;;;;;5031767;28;20025;-56
2022/12/12 09:53:39;;;;;;;11.07;4.57;;;22.20;99.90;;;;;;5013860;28;20095;-56
2022/12/12 09:56:18;;;;;;;6.65;3.95;;;22.20;99.90;;;;;;5031603;28;20034;-55
2022/12/12 09:59:01;;;;;;;10.13;4.20;;;22.30;99.90;;;;;;5031701;28;20113;-56
2022/12/12 10:01:53;;;;;;;9.10;4.35;;;22.30;99.90;;;;;;5013959;28;20402;-56
2022/12/12 10:04:36;;;;;;;14.80;4.82;;;22.40;99.90;;;;;;5031725;28;20030;-57
2022/12/12 10:07:08;;;;;;;7.82;4.15;;;22.40;99.90;;;;;;5031648;28;20048;-57
2022/12/12 10:10:01;;;;;;;8.90;3.90;;;22.50;99.90;;;;;;5031620;28;20037;-57
2022/12/12 10:12:28;;;;;;;11.32;4.50;;;22.50;99.90;;;;;;5031672;28;20060;-56
2022/12/12 10:14:59;;;;;;;14.17;4.83;;;22.60;99.90;;;;;;5031864;28;20022;-55
2022/12/12 10:17:39;;;;;;;10.52;4.53;;;22.60;99.90;;;;;;5014157;28;20402;-56
2022/12/12 10:20:29;;;;;;;10.82;5.13;;;22.70;99.90;;;;;;5031562;28;20411;-56
2022/12/12 10:23:20;;;;;;;9.23;3.92;;;22.70;99.90;;;;;;5031758;28;20070;-57
2022/12/12 10:25:57;;;;;;;9.30;4.50;;;22.80;99.90;;;;;;5031467;28;20033;-56
2022/12/12 10:28:25;;;;;;;9.15;4.45;;;22.80;99.90;;;;;;5031423;28;20025;-57
2022/12/12 10:31:10;;;;;;;11.30;4.88;;;22.90;99.90;;;;;;5031460;28;20125;-57
2022/12/12 10:33:50;;;;;;;9.95;4.60;;;22.90;99.90;;;;;;5031247;28;20017;-57
2022/12/12 10:36:38;;;;;;;8.40;4.60;;;23.00;99.90;;;;;;5031288;28;20045;-57
2022/12/12 10:39:29;;;;;;;9.57;4.05;;;23.00;99.90;;;;;;5033011;28;20391;-56
2022/12/12 10:42:21;;;;;;;8.85;4.10;;;23.10;99.90;;;;;;5034829;28;20410;-57
2022/12/12 10:45:06;;;;;;;9.90;4.15;;;23.10;99.90;;;;;;5033447;28;20134;-58
2022/12/12 10:47:33;;;;;;;10.23;4.47;;;23.20;99.90;;;;;;5034690;28;20021;-57
2022/12/12 10:50:34;;;;;;;6.75;3.75;;;23.20;99.90;;;;;;5017538;28;20109;-57
2022/12/12 10:53:07;;;;;;;9.35;4.90;;;23.20;99.90;;;;;;5034638;28;20087;-57
2022/12/12 10:55:45;;;;;;;8.70;4.20;;;23.20;99.90;;;;;;5034590;28;20033;-57
2022/12/12 10:58:11;;;;;;;9.07;4.40;;;23.30;99.90;;;;;;5034661;28;20056;-57
2022/12/12 11:00:40;;;;;;;10.25;4.13;;;23.30;99.90;;;;;;5034647;28;20475;-57
2022/12/12 11:03:51;;;;;;;9.68;4.95;;;23.30;99.90;;;;;;5034582;28;20022;-56
2022/12/12 11:06:29;;;;;;;8.85;4.35;;;23.30;99.90;;;;;;4990506;28;20083;-57
2022/12/12 11:08:57;;;;;;;7.22;4.00;;;23.40;99.90;;;;;;5034266;28;20384;-57
2022/12/12 11:11:27;;;;;;;11.20;5.03;;;23.40;99.90;;;;;;5034311;28;20381;-56
2022/12/12 11:14:18;;;;;;;11.68;4.68;;;23.40;99.90;;;;;;5034386;28;20137;-56
2022/12/12 11:16:44;;;;;;;11.00;4.05;;;23.40;99.90;;;;;;5034256;28;20021;-57
2022/12/12 11:19:19;;;;;;;33.03;5.95;;;23.40;99.90;;;;;;5034422;28;20021;-57
2022/12/12 11:21:46;;;;;;;9.60;4.28;;;23.40;99.90;;;;;;5034431;28;20025;-57
2022/12/12 11:24:15;;;;;;;8.85;3.80;;;23.40;99.90;;;;;;5016588;28;20052;-57
2022/12/12 11:27:10;;;;;;;12.02;4.63;;;23.40;99.90;;;;;;5034366;28;20024;-56
2022/12/12 11:29:48;;;;;;;17.83;4.75;;;23.40;99.90;;;;;;5030120;28;20449;-56
2022/12/12 11:32:17;;;;;;;11.07;5.03;;;23.50;99.90;;;;;;5034179;28;20020;-56
2022/12/12 11:34:54;;;;;;;13.93;4.57;;;23.40;99.90;;;;;;5034082;28;20049;-56
2022/12/12 11:37:25;;;;;;;7.37;4.20;;;23.40;99.90;;;;;;5034097;28;20017;-56
2022/12/12 11:39:53;;;;;;;16.70;4.80;;;23.40;99.90;;;;;;5033874;28;20058;-56
2022/12/12 11:42:30;;;;;;;11.45;5.07;;;23.40;99.90;;;;;;5033872;28;20017;-56
2022/12/12 11:45:08;;;;;;;11.50;4.57;;;23.40;99.90;;;;;;5015903;28;20112;-58
2022/12/12 11:47:43;;;;;;;8.07;4.13;;;23.40;99.90;;;;;;5033777;28;20023;-57
2022/12/12 11:50:24;;;;;;;10.32;4.32;;;23.40;99.90;;;;;;5033643;28;20057;-57
2022/12/12 11:52:55;;;;;;;8.23;3.85;;;23.40;99.90;;;;;;5033625;28;20014;-56
2022/12/12 11:55:48;;;;;;;10.90;3.95;;;23.40;99.90;;;;;;5033579;28;20032;-56
2022/12/12 11:58:31;;;;;;;14.18;4.50;;;23.40;99.90;;;;;;5033567;28;20475;-55
2022/12/12 12:01:09;;;;;;;11.10;4.95;;;23.40;99.90;;;;;;5033234;28;20553;-56
2022/12/12 12:03:59;;;;;;;11.60;4.43;;;23.40;99.90;;;;;;5033347;28;20044;-56
2022/12/12 12:06:58;;;;;;;10.65;4.10;;;23.40;99.90;;;;;;5033314;28;20832;-56
2022/12/12 12:09:30;;;;;;;8.70;3.90;;;23.40;99.90;;;;;;5033369;28;20585;-55
2022/12/12 12:12:22;;;;;;;12.00;4.88;;;23.40;99.90;;;;;;5033257;28;20040;-56
2022/12/12 12:15:29;;;;;;;9.38;4.43;;;23.40;99.90;;;;;;5033351;28;20055;-56
2022/12/12 12:18:04;;;;;;;12.68;4.78;;;23.50;99.90;;;;;;4952979;29;20102;-56
2022/12/12 12:20:35;;;;;;;12.95;4.90;;;23.50;99.90;;;;;;4953030;29;20023;-57
2022/12/12 12:23:13;;;;;;;8.27;4.18;;;23.60;99.90;;;;;;4998291;28;20091;-57
2022/12/12 12:25:58;;;;;;;10.52;3.63;;;23.60;99.90;;;;;;5032995;28;20044;-56
2022/12/12 12:28:33;;;;;;;10.10;4.32;;;23.60;99.90;;;;;;5015231;28;20033;-57
2022/12/12 12:31:14;;;;;;;9.38;3.83;;;23.70;99.90;;;;;;5031805;28;20430;-57
2022/12/12 12:33:58;;;;;;;11.93;3.70;;;23.70;99.90;;;;;;5032835;28;20096;-57
2022/12/12 12:36:26;;;;;;;10.02;4.22;;;23.70;99.90;;;;;;5032779;28;20029;-57
2022/12/12 12:39:16;;;;;;;8.90;4.38;;;23.70;99.90;;;;;;5032832;28;20320;-56
2022/12/12 12:41:53;;;;;;;6.85;3.92;;;23.70;99.90;;;;;;5017394;28;20026;-57
2022/12/12 12:44:51;;;;;;;9.55;4.03;;;23.70;99.90;;;;;;5032710;28;20379;-57
2022/12/12 12:47:46;;;;;;;8.70;3.58;;;23.70;99.90;;;;;;5017006;28;20048;-56
2022/12/12 12:50:33;;;;;;;12.25;4.20;;;23.70;99.90;;;;;;5032719;28;20034;-56
2022/12/12 12:53:04;;;;;;;7.70;4.13;;;23.70;99.90;;;;;;5032533;28;20083;-56
2022/12/12 12:55:38;;;;;;;9.02;3.33;;;23.80;99.90;;;;;;5014943;28;20029;-56
2022/12/12 12:58:11;;;;;;;11.07;3.50;;;23.80;99.90;;;;;;5032711;28;20052;-56
2022/12/12 13:00:38;;;;;;;7.03;3.78;;;23.80;99.90;;;;;;5032062;28;20077;-57
2022/12/12 13:03:16;;;;;;;18.15;4.38;;;23.80;99.90;;;;;;5032736;28;20022;-56
2022/12/12 13:05:48;;;;;;;8.38;3.75;;;23.80;99.90;;;;;;5032295;28;20109;-56
2022/12/12 13:08:51;;;;;;;8.00;3.40;;;23.80;99.90;;;;;;5014979;28;20441;-56
2022/12/12 13:11:38;;;;;;;9.23;3.88;;;23.80;99.90;;;;;;5032353;28;20068;-56
2022/12/12 13:14:56;;;;;;;12.77;4.25;;;23.90;99.90;;;;;;5032344;28;20034;-56
2022/12/12 13:17:39;;;;;;;7.93;3.90;;;23.90;99.90;;;;;;5028133;28;20507;-56
2022/12/12 13:20:06;;;;;;;7.55;3.10;;;23.90;99.90;;;;;;5017042;28;20033;-56
2022/12/12 13:22:41;;;;;;;7.97;3.53;;;23.90;99.90;;;;;;5032294;28;20080;-56
2022/12/12 13:25:37;;;;;;;9.88;3.55;;;24.00;99.90;;;;;;5031021;28;20263;-56
2022/12/12 13:28:12;;;;;;;8.32;3.45;;;24.00;99.90;;;;;;5032064;28;20079;-55
2022/12/12 13:30:47;;;;;;;10.23;4.28;;;24.00;99.90;;;;;;5032244;28;20033;-55